Time,TemperatureF,DewpointF,PressureIn,WindDirection,WindDirectionDegrees,WindSpeedMPH,WindSpeedGustMPH,Humidity,HourlyPrecipIn,Conditions,Clouds,dailyrainin,SoftwareType,DateUTC
2013-05-27 00:00:00,46.4,35.3,30.17,West,267,0.0,9.0,65,0.00,,,0.00,Wunderground v.1.15,2013-05-27 04:00:00,
2013-05-27 00:05:00,46.1,35.0,30.18,West,268,0.0,9.0,65,0.00,,,0.00,Wunderground v.1.15,2013-05-27 04:05:00,
2013-05-27 00:10:00,45.8,35.1,30.18,West,268,0.0,9.0,66,0.00,,,0.00,Wunderground v.1.15,2013-05-27 04:10:00,
2013-05-27 00:15:00,45.5,35.2,30.18,West,268,0.0,9.0,67,0.00,,,0.00,Wunderground v.1.15,2013-05-27 04:15:00,
2013-05-27 00:20:00,45.2,34.9,30.18,West,268,0.0,9.0,67,0.00,,,0.00,Wunderground v.1.15,2013-05-27 04:20:00,
2013-05-27 00:25:00,45.0,35.1,30.18,West,267,0.0,9.0,68,0.00,,,0.00,Wunderground v.1.15,2013-05-27 04:25:00,
2013-05-27 00:30:00,44.8,35.2,30.18,West,268,0.0,9.0,69,0.00,,,0.00,Wunderground v.1.15,2013-05-27 04:30:00,
2013-05-27 00:35:00,44.6,35.4,30.18,West,268,0.0,9.0,70,0.00,,,0.00,Wunderground v.1.15,2013-05-27 04:35:00,
2013-05-27 00:40:00,44.4,35.6,30.18,West,268,0.0,9.0,71,0.00,,,0.00,Wunderground v.1.15,2013-05-27 04:40:00,
2013-05-27 08:40:00,54.3,44.3,30.24,WSW,258,0.0,1.0,69,0.00,,,0.00,Wunderground v.1.15,2013-05-27 12:40:00,
2013-05-27 08:45:00,55.1,44.7,30.24,WSW,253,0.0,1.0,68,0.00,,,0.00,Wunderground v.1.15,2013-05-27 12:45:00,
2013-05-27 08:50:00,55.5,43.9,30.24,West,277,0.0,3.0,65,0.00,,,0.00,Wunderground v.1.15,2013-05-27 12:50:00,
2013-05-27 09:00:00,56.9,44.8,30.24,West,277,1.0,1.0,64,0.00,,,0.00,Wunderground v.1.15,2013-05-27 13:00:00,
2013-05-27 09:05:00,57.2,43.4,30.24,West,268,1.0,1.0,60,0.00,,,0.00,Wunderground v.1.15,2013-05-27 13:05:00,
2013-05-27 09:10:00,57.5,44.1,30.24,NW,305,0.0,0.0,61,0.00,,,0.00,Wunderground v.1.15,2013-05-27 13:10:00,
2013-05-27 09:15:00,57.8,43.6,30.24,WNW,288,0.0,0.0,59,0.00,,,0.00,Wunderground v.1.15,2013-05-27 13:15:00,
2013-05-27 09:20:00,57.6,43.4,30.24,West,270,1.0,1.0,59,0.00,,,0.00,Wunderground v.1.15,2013-05-27 13:20:00,
2013-05-27 09:25:00,58.0,44.2,30.24,West,269,0.0,1.0,60,0.00,,,0.00,Wunderground v.1.15,2013-05-27 13:25:00,
2013-05-27 09:30:00,58.6,45.6,30.24,West,275,0.0,0.0,62,0.00,,,0.00,Wunderground v.1.15,2013-05-27 13:30:00,
2013-05-27 09:40:00,59.8,45.4,30.24,West,277,0.0,4.0,59,0.00,,,0.00,Wunderground v.1.15,2013-05-27 13:40:00,
2013-05-27 09:45:00,59.8,44.5,30.24,West,278,0.0,4.0,57,0.00,,,0.00,Wunderground v.1.15,2013-05-27 13:45:00,
2013-05-27 09:50:00,60.1,45.7,30.24,WNW,285,0.0,4.0,59,0.00,,,0.00,Wunderground v.1.15,2013-05-27 13:50:00,
2013-05-27 09:55:00,60.2,44.0,30.24,WNW,285,0.0,4.0,55,0.00,,,0.00,Wunderground v.1.15,2013-05-27 13:55:00,
2013-05-27 10:00:00,60.4,44.6,30.24,WNW,285,0.0,4.0,56,0.00,,,0.00,Wunderground v.1.15,2013-05-27 14:00:00,
2013-05-27 10:05:00,60.6,44.8,30.24,West,280,1.0,4.0,56,0.00,,,0.00,Wunderground v.1.15,2013-05-27 14:05:00,
2013-05-27 10:10:00,61.2,45.8,30.23,West,281,1.0,1.0,57,0.00,,,0.00,Wunderground v.1.15,2013-05-27 14:10:00,
2013-05-27 10:20:00,61.7,45.4,30.23,WNW,285,0.0,4.0,55,0.00,,,0.00,Wunderground v.1.15,2013-05-27 14:20:00,
2013-05-27 10:25:00,62.1,45.7,30.23,WNW,283,1.0,4.0,55,0.00,,,0.00,Wunderground v.1.15,2013-05-27 14:25:00,
2013-05-27 10:30:00,62.1,44.8,30.22,WNW,283,1.0,1.0,53,0.00,,,0.00,Wunderground v.1.15,2013-05-27 14:30:00,
2013-05-27 10:35:00,62.3,46.4,30.22,West,281,0.0,4.0,56,0.00,,,0.00,Wunderground v.1.15,2013-05-27 14:35:00,
2013-05-27 10:40:00,62.9,46.5,30.22,West,281,0.0,4.0,55,0.00,,,0.00,Wunderground v.1.15,2013-05-27 14:40:00,
2013-05-27 10:45:00,63.6,47.1,30.22,WNW,292,1.0,4.0,55,0.00,,,0.00,Wunderground v.1.15,2013-05-27 14:45:00,
2013-05-27 10:50:00,63.5,45.0,30.22,WNW,303,1.0,4.0,51,0.00,,,0.00,Wunderground v.1.15,2013-05-27 14:50:00,
2013-05-27 10:55:00,63.6,45.6,30.21,NW,306,1.0,4.0,52,0.00,,,0.00,Wunderground v.1.15,2013-05-27 14:55:00,
2013-05-27 11:00:00,63.9,44.4,30.21,NW,306,1.0,1.0,49,0.00,,,0.00,Wunderground v.1.15,2013-05-27 15:00:00,
2013-05-27 11:10:00,64.0,41.6,30.21,West,263,1.0,1.0,44,0.00,,,0.00,Wunderground v.1.15,2013-05-27 15:10:00,
2013-05-27 11:15:00,64.3,43.1,30.21,West,279,1.0,2.0,46,0.00,,,0.00,Wunderground v.1.15,2013-05-27 15:15:00,
2013-05-27 11:20:00,64.6,43.9,30.22,West,273,1.0,1.0,47,0.00,,,0.00,Wunderground v.1.15,2013-05-27 15:20:00,
2013-05-27 11:25:00,64.9,42.5,30.21,West,274,1.0,4.0,44,0.00,,,0.00,Wunderground v.1.15,2013-05-27 15:25:00,
2013-05-27 11:30:00,65.0,40.1,30.22,West,266,1.0,1.0,40,0.00,,,0.00,Wunderground v.1.15,2013-05-27 15:30:00,
2013-05-27 11:35:00,65.1,42.0,30.21,West,275,1.0,4.0,43,0.00,,,0.00,Wunderground v.1.15,2013-05-27 15:35:00,
2013-05-27 11:40:00,65.5,43.6,30.21,WNW,287,1.0,1.0,45,0.00,,,0.00,Wunderground v.1.15,2013-05-27 15:40:00,
2013-05-27 11:45:00,65.8,43.3,30.21,West,259,1.0,2.0,44,0.00,,,0.00,Wunderground v.1.15,2013-05-27 15:45:00,
2013-05-27 11:55:00,65.6,41.9,30.21,West,272,1.0,2.0,42,0.00,,,0.00,Wunderground v.1.15,2013-05-27 15:55:00,
2013-05-27 12:00:00,65.8,42.1,30.21,West,273,1.0,1.0,42,0.00,,,0.00,Wunderground v.1.15,2013-05-27 16:00:00,
2013-05-27 12:05:00,66.4,45.0,30.21,West,277,0.0,4.0,46,0.00,,,0.00,Wunderground v.1.15,2013-05-27 16:05:00,
2013-05-27 12:10:00,66.7,44.1,30.21,West,273,1.0,1.0,44,0.00,,,0.00,Wunderground v.1.15,2013-05-27 16:10:00,
2013-05-27 12:15:00,66.2,40.5,30.20,WSW,248,1.0,4.0,39,0.00,,,0.00,Wunderground v.1.15,2013-05-27 16:15:00,
2013-05-27 12:20:00,65.9,42.1,30.20,West,263,1.0,1.0,42,0.00,,,0.00,Wunderground v.1.15,2013-05-27 16:20:00,
2013-05-27 12:25:00,66.7,45.3,30.20,West,259,1.0,4.0,46,0.00,,,0.00,Wunderground v.1.15,2013-05-27 16:25:00,
2013-05-27 12:35:00,67.0,39.9,30.19,WNW,301,1.0,4.0,37,0.00,,,0.00,Wunderground v.1.15,2013-05-27 16:35:00,
2013-05-27 12:40:00,66.8,42.3,30.19,NW,317,0.0,4.0,41,0.00,,,0.00,Wunderground v.1.15,2013-05-27 16:40:00,
2013-05-27 12:45:00,66.8,43.6,30.19,North,350,1.0,4.0,43,0.00,,,0.00,Wunderground v.1.15,2013-05-27 16:45:00,
2013-05-27 12:50:00,66.5,38.7,30.19,NNW,347,2.0,2.0,36,0.00,,,0.00,Wunderground v.1.15,2013-05-27 16:50:00,
2013-05-27 12:55:00,66.9,43.0,30.19,NW,321,1.0,4.0,42,0.00,,,0.00,Wunderground v.1.15,2013-05-27 16:55:00,
2013-05-27 13:00:00,67.2,40.0,30.19,NNW,337,1.0,1.0,37,0.00,,,0.00,Wunderground v.1.15,2013-05-27 17:00:00,
2013-05-27 13:05:00,67.5,43.6,30.19,North,5,2.0,2.0,42,0.00,,,0.00,Wunderground v.1.15,2013-05-27 17:05:00,
2013-05-27 13:15:00,67.9,43.3,30.18,NNW,342,2.0,4.0,41,0.00,,,0.00,Wunderground v.1.15,2013-05-27 17:15:00,
2013-05-27 13:25:00,69.2,44.5,30.18,NNW,342,1.0,3.0,41,0.00,,,0.00,Wunderground v.1.15,2013-05-27 17:25:00,
2013-05-27 13:30:00,68.7,44.7,30.17,NW,323,2.0,2.0,42,0.00,,,0.00,Wunderground v.1.15,2013-05-27 17:30:00,
2013-05-27 13:35:00,68.5,44.5,30.17,NW,324,2.0,4.0,42,0.00,,,0.00,Wunderground v.1.15,2013-05-27 17:35:00,
2013-05-27 13:40:00,68.1,42.2,30.17,NNE,12,1.0,5.0,39,0.00,,,0.00,Wunderground v.1.15,2013-05-27 17:40:00,
2013-05-27 13:45:00,67.7,43.1,30.17,NNW,346,2.0,5.0,41,0.00,,,0.00,Wunderground v.1.15,2013-05-27 17:45:00,
2013-05-27 13:50:00,68.5,45.7,30.17,WNW,293,2.0,2.0,44,0.00,,,0.00,Wunderground v.1.15,2013-05-27 17:50:00,
2013-05-27 14:00:00,68.1,39.4,30.17,North,350,1.0,4.0,35,0.00,,,0.00,Wunderground v.1.15,2013-05-27 18:00:00,
2013-05-27 14:05:00,67.9,43.3,30.16,WNW,299,1.0,4.0,41,0.00,,,0.00,Wunderground v.1.15,2013-05-27 18:05:00,
2013-05-27 14:10:00,68.4,39.7,30.16,NNE,12,1.0,1.0,35,0.00,,,0.00,Wunderground v.1.15,2013-05-27 18:10:00,
2013-05-27 14:15:00,69.4,43.4,30.16,WSW,244,1.0,3.0,39,0.00,,,0.00,Wunderground v.1.15,2013-05-27 18:15:00,
2013-05-27 14:20:00,69.0,43.0,30.16,WSW,248,1.0,1.0,39,0.00,,,0.00,Wunderground v.1.15,2013-05-27 18:20:00,
2013-05-27 14:25:00,67.8,38.4,30.15,SSE,159,2.0,7.0,34,0.00,,,0.00,Wunderground v.1.15,2013-05-27 18:25:00,
2013-05-27 14:30:00,67.6,45.5,30.15,SSE,158,2.0,2.0,45,0.00,,,0.00,Wunderground v.1.15,2013-05-27 18:30:00,
2013-05-27 14:40:00,69.4,40.5,30.15,West,275,1.0,4.0,35,0.00,,,0.00,Wunderground v.1.15,2013-05-27 18:40:00,
2013-05-27 14:45:00,69.9,46.4,30.15,West,270,1.0,4.0,43,0.00,,,0.00,Wunderground v.1.15,2013-05-27 18:45:00,
2013-05-27 14:50:00,69.8,42.3,30.14,West,269,1.0,1.0,37,0.00,,,0.00,Wunderground v.1.15,2013-05-27 18:50:00,
2013-05-27 14:55:00,70.5,39.2,30.14,North,9,1.0,3.0,32,0.00,,,0.00,Wunderground v.1.15,2013-05-27 18:55:00,
2013-05-27 15:00:00,71.0,47.4,30.14,NNE,15,1.0,5.0,43,0.00,,,0.00,Wunderground v.1.15,2013-05-27 19:00:00,
2013-05-27 15:05:00,69.4,38.2,30.14,ENE,62,1.0,5.0,32,0.00,,,0.00,Wunderground v.1.15,2013-05-27 19:05:00,
2013-05-27 15:10:00,69.9,43.1,30.14,North,5,1.0,4.0,38,0.00,,,0.00,Wunderground v.1.15,2013-05-27 19:10:00,
2013-05-27 15:20:00,70.6,40.1,30.14,West,279,2.0,4.0,33,0.00,,,0.00,Wunderground v.1.15,2013-05-27 19:20:00,
2013-05-27 15:25:00,70.0,38.8,30.14,ENE,69,1.0,4.0,32,0.00,,,0.00,Wunderground v.1.15,2013-05-27 19:25:00,
2013-05-27 15:30:00,70.2,40.5,30.14,NE,50,1.0,1.0,34,0.00,,,0.00,Wunderground v.1.15,2013-05-27 19:30:00,
2013-05-27 15:35:00,70.3,42.8,30.13,NE,39,1.0,5.0,37,0.00,,,0.00,Wunderground v.1.15,2013-05-27 19:35:00,
2013-05-27 15:40:00,70.4,40.7,30.13,NE,34,1.0,1.0,34,0.00,,,0.00,Wunderground v.1.15,2013-05-27 19:40:00,
2013-05-27 15:45:00,70.3,40.6,30.13,NE,34,0.0,4.0,34,0.00,,,0.00,Wunderground v.1.15,2013-05-27 19:45:00,
2013-05-27 15:50:00,70.5,40.0,30.14,North,355,1.0,4.0,33,0.00,,,0.00,Wunderground v.1.15,2013-05-27 19:50:00,
2013-05-27 16:00:00,70.4,41.4,30.14,NNE,16,2.0,2.0,35,0.00,,,0.00,Wunderground v.1.15,2013-05-27 20:00:00,
2013-05-27 16:05:00,70.1,41.2,30.14,WNW,301,2.0,4.0,35,0.00,,,0.00,Wunderground v.1.15,2013-05-27 20:05:00,
2013-05-27 16:10:00,70.2,42.0,30.14,NNW,346,2.0,4.0,36,0.00,,,0.00,Wunderground v.1.15,2013-05-27 20:10:00,
2013-05-27 16:15:00,70.3,42.8,30.14,NNW,335,2.0,4.0,37,0.00,,,0.00,Wunderground v.1.15,2013-05-27 20:15:00,
2013-05-27 16:20:00,70.4,41.4,30.14,WNW,293,2.0,2.0,35,0.00,,,0.00,Wunderground v.1.15,2013-05-27 20:20:00,
2013-05-27 16:25:00,70.0,43.2,30.13,WNW,293,1.0,4.0,38,0.00,,,0.00,Wunderground v.1.15,2013-05-27 20:25:00,
2013-05-27 16:30:00,70.4,44.3,30.13,WNW,299,1.0,1.0,39,0.00,,,0.00,Wunderground v.1.15,2013-05-27 20:30:00,
2013-05-27 16:40:00,70.2,42.0,30.13,North,351,1.0,4.0,36,0.00,,,0.00,Wunderground v.1.15,2013-05-27 20:40:00,
2013-05-27 16:50:00,70.1,42.6,30.13,NNW,337,1.0,1.0,37,0.00,,,0.00,Wunderground v.1.15,2013-05-27 20:50:00,
2013-05-27 16:55:00,69.7,40.8,30.13,WNW,302,1.0,3.0,35,0.00,,,0.00,Wunderground v.1.15,2013-05-27 20:55:00,
2013-05-27 17:00:00,69.4,39.8,30.13,North,349,1.0,4.0,34,0.00,,,0.00,Wunderground v.1.15,2013-05-27 21:00:00,
2013-05-27 17:05:00,69.0,40.2,30.13,North,355,1.0,4.0,35,0.00,,,0.00,Wunderground v.1.15,2013-05-27 21:05:00,
2013-05-27 17:10:00,69.3,41.2,30.13,North,355,2.0,4.0,36,0.00,,,0.00,Wunderground v.1.15,2013-05-27 21:10:00,
2013-05-27 17:20:00,68.7,40.7,30.13,NW,319,2.0,2.0,36,0.00,,,0.00,Wunderground v.1.15,2013-05-27 21:20:00,
2013-05-27 17:30:00,68.6,39.8,30.13,North,350,1.0,5.0,35,0.00,,,0.00,Wunderground v.1.15,2013-05-27 21:30:00,
2013-05-27 17:35:00,69.1,44.4,30.13,North,9,2.0,5.0,41,0.00,,,0.00,Wunderground v.1.15,2013-05-27 21:35:00,
2013-05-27 17:40:00,69.0,39.4,30.13,North,360,2.0,4.0,34,0.00,,,0.00,Wunderground v.1.15,2013-05-27 21:40:00,
2013-05-27 17:45:00,68.9,38.6,30.12,NW,325,1.0,4.0,33,0.00,,,0.00,Wunderground v.1.15,2013-05-27 21:45:00,
2013-05-27 17:50:00,68.9,40.1,30.12,NNW,344,1.0,1.0,35,0.00,,,0.00,Wunderground v.1.15,2013-05-27 21:50:00,
2013-05-27 17:55:00,68.9,40.1,30.12,North,5,2.0,4.0,35,0.00,,,0.00,Wunderground v.1.15,2013-05-27 21:55:00,
2013-05-27 18:05:00,69.3,38.9,30.12,North,5,1.0,4.0,33,0.00,,,0.00,Wunderground v.1.15,2013-05-27 22:05:00,
2013-05-27 18:10:00,68.9,40.8,30.11,North,349,1.0,4.0,36,0.00,,,0.00,Wunderground v.1.15,2013-05-27 22:10:00,
2013-05-27 18:15:00,69.0,39.4,30.12,North,351,2.0,4.0,34,0.00,,,0.00,Wunderground v.1.15,2013-05-27 22:15:00,
2013-05-27 18:20:00,68.5,39.0,30.12,North,355,2.0,2.0,34,0.00,,,0.00,Wunderground v.1.15,2013-05-27 22:20:00,
2013-05-27 18:25:00,68.0,37.0,30.12,North,350,2.0,3.0,32,0.00,,,0.00,Wunderground v.1.15,2013-05-27 22:25:00,
2013-05-27 18:30:00,67.6,38.2,30.11,North,355,1.0,1.0,34,0.00,,,0.00,Wunderground v.1.15,2013-05-27 22:30:00,
2013-05-27 18:35:00,67.2,37.9,30.11,North,355,1.0,2.0,34,0.00,,,0.00,Wunderground v.1.15,2013-05-27 22:35:00,
2013-05-27 18:45:00,66.6,36.6,30.12,NNW,348,1.0,4.0,33,0.00,,,0.00,Wunderground v.1.15,2013-05-27 22:45:00,
2013-05-27 18:50:00,66.4,37.2,30.12,NNW,348,1.0,1.0,34,0.00,,,0.00,Wunderground v.1.15,2013-05-27 22:50:00,
2013-05-27 18:55:00,66.1,37.6,30.11,NNW,348,1.0,4.0,35,0.00,,,0.00,Wunderground v.1.15,2013-05-27 22:55:00,
2013-05-27 19:00:00,65.9,38.2,30.11,NNW,348,1.0,4.0,36,0.00,,,0.00,Wunderground v.1.15,2013-05-27 23:00:00,
2013-05-27 19:05:00,65.6,37.9,30.12,NNW,348,1.0,4.0,36,0.00,,,0.00,Wunderground v.1.15,2013-05-27 23:05:00,
2013-05-27 19:10:00,65.2,37.6,30.12,North,349,1.0,1.0,36,0.00,,,0.00,Wunderground v.1.15,2013-05-27 23:10:00,
2013-05-27 19:15:00,64.9,38.0,30.11,North,349,0.0,4.0,37,0.00,,,0.00,Wunderground v.1.15,2013-05-27 23:15:00,
2013-05-27 19:25:00,64.4,41.4,30.11,North,349,0.0,4.0,43,0.00,,,0.00,Wunderground v.1.15,2013-05-27 23:25:00,
2013-05-27 19:35:00,63.8,39.0,30.11,North,349,0.0,4.0,40,0.00,,,0.00,Wunderground v.1.15,2013-05-27 23:35:00,
2013-05-27 19:40:00,63.5,42.3,30.11,North,349,0.0,4.0,46,0.00,,,0.00,Wunderground v.1.15,2013-05-27 23:40:00,
2013-05-27 19:45:00,63.2,42.6,30.11,North,349,0.0,4.0,47,0.00,,,0.00,Wunderground v.1.15,2013-05-27 23:45:00,
2013-05-27 19:50:00,62.7,42.2,30.11,North,349,0.0,4.0,47,0.00,,,0.00,Wunderground v.1.15,2013-05-27 23:50:00,
2013-05-27 19:55:00,62.1,41.1,30.11,North,349,0.0,4.0,46,0.00,,,0.00,Wunderground v.1.15,2013-05-27 23:55:00,
2013-05-27 20:00:00,61.4,41.5,30.11,North,349,0.0,4.0,48,0.00,,,0.00,Wunderground v.1.15,2013-05-28 00:00:00,
2013-05-27 20:10:00,60.6,41.3,30.11,North,349,0.0,4.0,49,0.00,,,0.00,Wunderground v.1.15,2013-05-28 00:10:00,
2013-05-27 20:15:00,60.1,40.9,30.11,North,349,0.0,4.0,49,0.00,,,0.00,Wunderground v.1.15,2013-05-28 00:15:00,
2013-05-27 20:20:00,59.5,40.3,30.10,North,349,0.0,4.0,49,0.00,,,0.00,Wunderground v.1.15,2013-05-28 00:20:00,
2013-05-27 20:25:00,59.0,40.4,30.10,North,349,0.0,4.0,50,0.00,,,0.00,Wunderground v.1.15,2013-05-28 00:25:00,
2013-05-27 20:30:00,58.3,39.2,30.10,North,349,0.0,4.0,49,0.00,,,0.00,Wunderground v.1.15,2013-05-28 00:30:00,
2013-05-27 20:35:00,57.6,39.6,30.10,North,349,0.0,4.0,51,0.00,,,0.00,Wunderground v.1.15,2013-05-28 00:35:00,
2013-05-27 20:40:00,57.0,39.0,30.10,North,349,0.0,4.0,51,0.00,,,0.00,Wunderground v.1.15,2013-05-28 00:40:00,
2013-05-27 20:45:00,56.6,39.7,30.10,North,349,0.0,4.0,53,0.00,,,0.00,Wunderground v.1.15,2013-05-28 00:45:00,
2013-05-27 20:55:00,55.8,39.9,30.10,North,349,0.0,4.0,55,0.00,,,0.00,Wunderground v.1.15,2013-05-28 00:55:00,
2013-05-27 21:00:00,55.5,40.5,30.10,North,349,0.0,4.0,57,0.00,,,0.00,Wunderground v.1.15,2013-05-28 01:00:00,
2013-05-27 21:05:00,55.2,40.2,30.10,North,349,0.0,4.0,57,0.00,,,0.00,Wunderground v.1.15,2013-05-28 01:05:00,
2013-05-27 21:10:00,54.9,40.4,30.10,North,349,0.0,4.0,58,0.00,,,0.00,Wunderground v.1.15,2013-05-28 01:10:00,
2013-05-27 21:15:00,54.6,40.1,30.11,North,349,0.0,4.0,58,0.00,,,0.00,Wunderground v.1.15,2013-05-28 01:15:00,
2013-05-27 21:20:00,54.4,39.9,30.10,North,349,0.0,4.0,58,0.00,,,0.00,Wunderground v.1.15,2013-05-28 01:20:00,
2013-05-27 21:30:00,53.9,41.2,30.11,North,349,0.0,4.0,62,0.00,,,0.00,Wunderground v.1.15,2013-05-28 01:30:00,
2013-05-27 21:40:00,53.5,41.6,30.11,North,349,0.0,4.0,64,0.00,,,0.00,Wunderground v.1.15,2013-05-28 01:40:00,
2013-05-27 21:45:00,53.2,41.3,30.11,North,349,0.0,4.0,64,0.00,,,0.00,Wunderground v.1.15,2013-05-28 01:45:00,
2013-05-27 21:50:00,52.9,40.6,30.11,North,349,0.0,4.0,63,0.00,,,0.00,Wunderground v.1.15,2013-05-28 01:50:00,
2013-05-27 21:55:00,52.8,41.0,30.11,North,349,0.0,4.0,64,0.00,,,0.00,Wunderground v.1.15,2013-05-28 01:55:00,
2013-05-27 22:05:00,52.4,41.0,30.11,North,349,0.0,4.0,65,0.00,,,0.00,Wunderground v.1.15,2013-05-28 02:05:00,
2013-05-27 22:15:00,52.0,40.6,30.11,North,349,0.0,4.0,65,0.00,,,0.00,Wunderground v.1.15,2013-05-28 02:15:00,
2013-05-27 22:20:00,51.9,41.3,30.11,North,349,0.0,4.0,67,0.00,,,0.00,Wunderground v.1.15,2013-05-28 02:20:00,
2013-05-27 22:25:00,51.6,41.4,30.11,North,349,0.0,4.0,68,0.00,,,0.00,Wunderground v.1.15,2013-05-28 02:25:00,
2013-05-27 22:30:00,51.4,41.2,30.11,North,349,0.0,4.0,68,0.00,,,0.00,Wunderground v.1.15,2013-05-28 02:30:00,
2013-05-27 22:35:00,51.3,41.8,30.12,North,349,0.0,4.0,70,0.00,,,0.00,Wunderground v.1.15,2013-05-28 02:35:00,
2013-05-27 22:40:00,51.1,41.7,30.12,North,349,0.0,4.0,70,0.00,,,0.00,Wunderground v.1.15,2013-05-28 02:40:00,
2013-05-27 22:45:00,51.0,41.6,30.12,North,349,0.0,4.0,70,0.00,,,0.00,Wunderground v.1.15,2013-05-28 02:45:00,
2013-05-27 22:55:00,50.7,41.6,30.12,North,349,0.0,4.0,71,0.00,,,0.00,Wunderground v.1.15,2013-05-28 02:55:00,
2013-05-27 23:00:00,50.5,41.8,30.12,North,349,0.0,4.0,72,0.00,,,0.00,Wunderground v.1.15,2013-05-28 03:00:00,
2013-05-27 23:05:00,50.4,41.3,30.12,North,349,0.0,4.0,71,0.00,,,0.00,Wunderground v.1.15,2013-05-28 03:05:00,
2013-05-27 23:10:00,50.3,41.3,30.12,North,349,0.0,4.0,71,0.00,,,0.00,Wunderground v.1.15,2013-05-28 03:10:00,
2013-05-27 23:15:00,50.3,41.6,30.12,North,349,0.0,4.0,72,0.00,,,0.00,Wunderground v.1.15,2013-05-28 03:15:00,
2013-05-27 23:20:00,50.4,41.7,30.12,North,349,0.0,4.0,72,0.00,,,0.00,Wunderground v.1.15,2013-05-28 03:20:00,
2013-05-27 23:25:00,50.5,41.8,30.12,North,349,0.0,4.0,72,0.00,,,0.00,Wunderground v.1.15,2013-05-28 03:25:00,
2013-05-27 23:30:00,50.5,41.8,30.12,North,349,0.0,4.0,72,0.00,,,0.00,Wunderground v.1.15,2013-05-28 03:30:00,
2013-05-27 23:35:00,50.5,41.8,30.13,North,349,0.0,4.0,72,0.00,,,0.00,Wunderground v.1.15,2013-05-28 03:35:00,
2013-05-27 23:45:00,50.5,42.5,30.13,North,349,0.0,4.0,74,0.00,,,0.00,Wunderground v.1.15,2013-05-28 03:45:00,
2013-05-27 23:50:00,50.4,42.4,30.13,North,349,0.0,4.0,74,0.00,,,0.00,Wunderground v.1.15,2013-05-28 03:50:00,
2013-05-27 23:55:00,50.2,42.2,30.13,North,349,0.0,4.0,74,0.00,,,0.00,Wunderground v.1.15,2013-05-28 03:55:00,